createdAt,value
2019-03-21T00:02:04.199Z,37.60
2019-03-21T00:04:32.658Z,36.17
2019-03-21T00:07:01.114Z,33.48
2019-03-21T00:09:29.661Z,32.10
2019-03-21T00:12:08.677Z,37.30
2019-03-21T00:14:54.952Z,38.67
2019-03-21T00:17:26.638Z,36.65
2019-03-21T00:19:55.095Z,30.90
2019-03-21T00:22:23.594Z,37.55
2019-03-21T00:24:52.041Z,36.13
2019-03-21T00:27:20.502Z,37.67
2019-03-21T00:29:49.005Z,35.52
2019-03-21T00:32:17.542Z,43.10
2019-03-21T00:34:45.991Z,34.88
2019-03-21T00:37:14.479Z,39.70
2019-03-21T00:39:42.930Z,38.53
2019-03-21T00:42:11.413Z,41.33
2019-03-21T00:44:39.866Z,34.85
2019-03-21T00:47:08.355Z,37.67
2019-03-21T00:49:36.809Z,42.65
2019-03-21T00:52:05.730Z,41.50
2019-03-21T00:54:34.186Z,38.45
2019-03-21T00:57:02.631Z,31.97
2019-03-21T00:59:31.194Z,49.30
2019-03-21T01:01:59.641Z,34.90
2019-03-21T01:04:28.828Z,47.08
2019-03-21T01:06:57.329Z,37.80
2019-03-21T01:09:25.774Z,37.30
2019-03-21T01:11:54.226Z,37.03
2019-03-21T01:14:29.828Z,41.58
2019-03-21T01:16:52.907Z,42.95
2019-03-21T01:19:21.355Z,36.83
2019-03-21T01:21:49.831Z,42.25
2019-03-21T01:24:18.285Z,41.13
2019-03-21T01:26:46.770Z,42.67
2019-03-21T01:29:15.289Z,46.40
2019-03-21T01:31:43.789Z,42.60
2019-03-21T01:34:12.249Z,38.50
2019-03-21T01:36:40.696Z,46.63
2019-03-21T01:39:09.184Z,46.73
2019-03-21T01:41:37.633Z,46.48
2019-03-21T01:44:06.181Z,48.87
2019-03-21T01:46:34.674Z,43.05
2019-03-21T01:49:03.185Z,48.90
2019-03-21T01:51:31.912Z,48.42
2019-03-21T01:54:00.421Z,41.95
2019-03-21T01:56:30.520Z,42.23
2019-03-21T01:58:59.087Z,47.70
2019-03-21T02:01:27.602Z,49.08
2019-03-21T02:03:56.050Z,43.50
2019-03-21T02:06:24.564Z,49.13
2019-03-21T02:08:53.080Z,43.45
2019-03-21T02:11:33.828Z,47.65
2019-03-21T02:14:02.273Z,50.63
2019-03-21T02:16:30.730Z,43.92
2019-03-21T02:18:59.230Z,51.35
2019-03-21T02:21:27.684Z,45.83
2019-03-21T02:23:56.147Z,44.10
2019-03-21T02:26:24.749Z,48.55
2019-03-21T02:28:53.203Z,51.83
2019-03-21T02:31:21.669Z,47.15
2019-03-21T02:33:50.247Z,50.43
2019-03-21T02:36:18.694Z,48.50
2019-03-21T02:38:47.155Z,51.48
2019-03-21T02:41:16.954Z,52.17
2019-03-21T02:43:45.467Z,53.60
2019-03-21T02:46:14.124Z,49.27
2019-03-21T02:48:42.651Z,50.20
2019-03-21T02:51:11.145Z,51.50
2019-03-21T02:53:39.662Z,55.95
2019-03-21T02:56:11.577Z,49.93
2019-03-21T02:58:40.134Z,50.40
2019-03-21T03:01:08.584Z,52.50
2019-03-21T03:03:37.052Z,51.92
2019-03-21T03:06:05.696Z,54.18
2019-03-21T03:08:34.153Z,50.20
2019-03-21T03:11:10.818Z,48.68
2019-03-21T03:13:39.144Z,47.38
2019-03-21T03:16:07.670Z,47.90
2019-03-21T03:18:36.116Z,42.62
2019-03-21T03:21:04.754Z,53.85
2019-03-21T03:23:33.202Z,49.83
2019-03-21T03:26:02.190Z,51.18
2019-03-21T03:28:33.843Z,51.85
2019-03-21T03:31:02.354Z,49.35
2019-03-21T03:33:31.100Z,45.90
2019-03-21T03:35:59.570Z,54.77
2019-03-21T03:38:28.087Z,50.65
2019-03-21T03:40:59.755Z,56.02
2019-03-21T03:43:28.347Z,56.80
2019-03-21T03:45:56.827Z,55.80
2019-03-21T03:48:26.621Z,47.80
2019-03-21T03:50:55.104Z,55.10
2019-03-21T03:53:23.634Z,48.25
2019-03-21T03:55:52.145Z,50.73
2019-03-21T03:58:28.947Z,53.70
2019-03-21T04:00:57.570Z,52.70
2019-03-21T04:03:27.740Z,52.13
2019-03-21T04:05:56.502Z,54.67
2019-03-21T04:08:25.005Z,52.83
2019-03-21T04:10:56.260Z,62.83
2019-03-21T04:13:24.744Z,59.70
2019-03-21T04:15:54.038Z,55.05
2019-03-21T04:18:24.697Z,56.00
2019-03-21T04:23:25.827Z,52.05
2019-03-21T04:26:12.404Z,56.58
2019-03-21T04:28:42.015Z,56.95
2019-03-21T04:31:10.453Z,52.20
2019-03-21T04:33:38.929Z,59.88
2019-03-21T04:36:07.509Z,58.33
2019-03-21T04:38:36.023Z,52.62
2019-03-21T04:41:04.638Z,52.23
2019-03-21T04:43:33.127Z,51.58
2019-03-21T04:46:03.565Z,57.88
2019-03-21T04:48:31.780Z,51.05
2019-03-21T04:51:00.220Z,51.50
2019-03-21T04:53:28.674Z,54.20
2019-03-21T04:55:57.173Z,53.35
2019-03-21T04:58:25.636Z,56.53
2019-03-21T05:00:56.103Z,56.63
2019-03-21T05:05:56.337Z,57.40
2019-03-21T05:08:24.855Z,57.80
2019-03-21T05:10:53.349Z,52.00
2019-03-21T05:13:21.819Z,56.30
2019-03-21T05:15:51.606Z,57.88
2019-03-21T05:18:23.836Z,57.15
2019-03-21T05:20:52.352Z,52.75
2019-03-21T05:23:20.850Z,55.08
2019-03-21T05:25:49.306Z,55.03
2019-03-21T05:28:17.758Z,48.10
2019-03-21T05:30:55.283Z,52.75
2019-03-21T05:33:23.728Z,53.68
2019-03-21T05:35:52.528Z,46.18
2019-03-21T05:38:22.522Z,51.68
2019-03-21T05:40:50.983Z,47.17
2019-03-21T05:43:25.579Z,58.55
2019-03-21T05:45:54.036Z,55.90
2019-03-21T05:48:22.531Z,52.08
2019-03-21T05:50:50.983Z,64.35
2019-03-21T05:53:19.443Z,51.45
2019-03-21T05:55:47.941Z,52.80
2019-03-21T05:58:16.438Z,50.33
2019-03-21T06:00:51.201Z,48.70
2019-03-21T06:03:33.041Z,49.45
2019-03-21T06:06:13.498Z,49.88
2019-03-21T06:11:10.594Z,48.28
2019-03-21T06:13:39.046Z,49.45
2019-03-21T06:16:08.829Z,49.58
2019-03-21T06:18:49.157Z,57.38
2019-03-21T06:21:23.444Z,47.23
2019-03-21T06:24:14.545Z,58.15
2019-03-21T06:26:51.936Z,43.68
2019-03-21T06:29:20.444Z,47.73
2019-03-21T06:31:49.340Z,47.27
2019-03-21T06:34:17.817Z,49.60
2019-03-21T06:36:46.309Z,48.10
2019-03-21T06:39:14.755Z,45.10
2019-03-21T06:41:43.205Z,49.90
2019-03-21T06:44:11.692Z,47.05
2019-03-21T06:46:48.749Z,49.60
2019-03-21T06:49:10.441Z,45.80
2019-03-21T06:51:38.887Z,46.55
2019-03-21T06:54:07.378Z,49.08
2019-03-21T06:56:35.829Z,48.63
2019-03-21T06:59:04.462Z,52.53
2019-03-21T07:01:32.983Z,47.73
2019-03-21T07:04:07.184Z,47.03
2019-03-21T07:06:31.636Z,48.52
2019-03-21T07:09:00.215Z,48.20
2019-03-21T07:11:28.693Z,51.18
2019-03-21T07:13:57.193Z,52.83
2019-03-21T07:16:25.682Z,49.58
2019-03-21T07:18:54.215Z,51.15
2019-03-21T07:21:22.747Z,54.15
2019-03-21T07:23:51.206Z,48.02
2019-03-21T07:26:19.695Z,47.40
2019-03-21T07:28:48.149Z,51.08
2019-03-21T07:31:16.647Z,47.58
2019-03-21T07:33:45.379Z,51.83
2019-03-21T07:36:13.891Z,53.40
2019-03-21T07:38:42.427Z,51.45
2019-03-21T07:41:10.868Z,48.73
2019-03-21T07:43:39.320Z,52.73
2019-03-21T07:46:07.829Z,50.65
2019-03-21T07:48:36.294Z,46.20
2019-03-21T07:51:04.827Z,49.42
2019-03-21T07:53:33.323Z,45.65
2019-03-21T07:56:01.773Z,51.13
2019-03-21T07:58:30.285Z,49.35
2019-03-21T08:00:58.909Z,49.05
2019-03-21T08:03:27.358Z,48.20
2019-03-21T08:05:55.876Z,47.17
2019-03-21T08:08:24.331Z,52.58
2019-03-21T08:10:52.786Z,46.20
2019-03-21T08:13:21.298Z,45.08
2019-03-21T08:15:49.824Z,46.60
2019-03-21T08:18:18.390Z,48.83
2019-03-21T08:20:56.102Z,42.90
2019-03-21T08:23:17.038Z,42.67
2019-03-21T08:25:45.512Z,41.70
2019-03-21T08:28:13.983Z,49.18
2019-03-21T08:31:02.059Z,48.92
2019-03-21T08:33:30.517Z,41.68
2019-03-21T08:35:59.090Z,46.77
2019-03-21T08:38:27.632Z,47.10
2019-03-21T08:40:56.149Z,40.58
2019-03-21T08:43:24.647Z,46.33
2019-03-21T08:45:53.094Z,46.35
2019-03-21T08:48:21.663Z,45.73
2019-03-21T08:50:50.118Z,44.80
2019-03-21T08:53:18.641Z,50.52
2019-03-21T08:55:47.097Z,47.27
2019-03-21T08:58:15.540Z,47.78
2019-03-21T09:00:44.035Z,50.17
2019-03-21T09:03:12.494Z,50.30
2019-03-21T09:05:41.006Z,48.40
2019-03-21T09:08:09.453Z,46.48
2019-03-21T09:10:37.911Z,53.23
2019-03-21T09:13:06.460Z,48.42
2019-03-21T09:15:34.975Z,54.63
2019-03-21T09:18:03.448Z,49.42
2019-03-21T09:20:31.966Z,50.70
2019-03-21T09:23:00.488Z,51.63
2019-03-21T09:25:28.941Z,48.68
2019-03-21T09:28:02.646Z,50.95
2019-03-21T09:30:27.602Z,52.40
2019-03-21T09:32:56.053Z,51.15
2019-03-21T09:35:24.559Z,52.83
2019-03-21T09:37:53.011Z,51.95
2019-03-21T09:40:21.526Z,53.00
2019-03-21T09:42:49.964Z,50.67
2019-03-21T09:45:18.591Z,54.50
2019-03-21T09:47:47.069Z,48.25
2019-03-21T09:50:27.151Z,50.70
2019-03-21T09:52:56.580Z,49.90
2019-03-21T09:55:25.275Z,46.58
2019-03-21T09:57:53.797Z,41.18
2019-03-21T10:00:36.143Z,41.77
2019-03-21T10:03:05.637Z,42.70
2019-03-21T10:05:34.118Z,43.00
2019-03-21T10:08:03.211Z,33.50
2019-03-21T10:10:33.501Z,28.12
2019-03-21T10:13:02.120Z,29.70
2019-03-21T10:15:30.634Z,25.17
2019-03-21T10:17:59.090Z,27.42
2019-03-21T10:20:27.545Z,24.32
2019-03-21T10:22:56.072Z,29.02
2019-03-21T10:25:26.716Z,26.77
2019-03-21T10:27:54.715Z,24.55
2019-03-21T10:30:39.993Z,20.80
2019-03-21T10:33:10.182Z,20.92
2019-03-21T10:35:38.701Z,25.05
2019-03-21T10:38:07.786Z,25.75
2019-03-21T10:40:36.821Z,29.60
2019-03-21T10:43:06.041Z,24.85
2019-03-21T10:45:34.714Z,26.50
2019-03-21T10:48:03.281Z,25.02
2019-03-21T10:50:37.179Z,24.12
2019-03-21T10:53:07.073Z,25.15
2019-03-21T10:55:35.530Z,28.02
2019-03-21T10:58:05.278Z,27.37
2019-03-21T11:00:34.503Z,26.95
2019-03-21T11:03:02.956Z,27.00
2019-03-21T11:05:31.448Z,31.02
2019-03-21T11:07:59.975Z,29.72
2019-03-21T11:10:28.515Z,28.77
2019-03-21T11:12:56.965Z,32.23
2019-03-21T11:15:25.415Z,26.48
2019-03-21T11:17:55.174Z,26.50
2019-03-21T11:20:28.716Z,26.02
2019-03-21T11:22:57.171Z,25.05
2019-03-21T11:25:25.694Z,24.30
2019-03-21T11:27:55.375Z,28.87
2019-03-21T11:30:32.960Z,23.87
2019-03-21T11:33:01.671Z,26.37
2019-03-21T11:35:30.942Z,26.90
2019-03-21T11:37:59.417Z,25.52
2019-03-21T11:40:27.873Z,26.73
2019-03-21T11:42:56.846Z,25.05
2019-03-21T11:45:25.385Z,23.05
2019-03-21T11:47:54.056Z,25.90
2019-03-21T11:50:22.781Z,20.10
2019-03-21T11:52:51.228Z,23.10
2019-03-21T11:55:19.673Z,23.50
2019-03-21T11:57:48.158Z,25.43
2019-03-21T12:00:16.958Z,20.65
2019-03-21T12:02:45.542Z,23.05
2019-03-21T12:05:13.992Z,24.45
2019-03-21T12:07:42.441Z,21.82
2019-03-21T12:10:12.365Z,24.27
2019-03-21T12:12:40.859Z,21.33
2019-03-21T12:15:11.054Z,24.75
2019-03-21T12:17:39.548Z,23.98
2019-03-21T12:20:10.135Z,21.68
2019-03-21T12:22:38.612Z,24.60
2019-03-21T12:25:27.921Z,21.75
2019-03-21T12:27:56.675Z,22.17
2019-03-21T12:30:35.693Z,22.73
2019-03-21T12:33:04.598Z,24.87
2019-03-21T12:35:33.044Z,25.27
2019-03-21T12:38:01.689Z,28.10
2019-03-21T12:40:30.205Z,24.87
2019-03-21T12:42:58.662Z,24.37
2019-03-21T12:45:27.186Z,25.75
2019-03-21T12:47:55.681Z,24.82
2019-03-21T12:50:24.134Z,26.37
2019-03-21T12:52:52.617Z,25.00
2019-03-21T12:55:21.081Z,27.35
2019-03-21T12:57:49.871Z,23.30
2019-03-21T13:00:33.074Z,26.82
2019-03-21T13:03:01.637Z,28.15
2019-03-21T13:05:31.190Z,24.87
2019-03-21T13:07:59.718Z,31.80
2019-03-21T13:10:28.252Z,27.22
2019-03-21T13:12:57.533Z,30.60
2019-03-21T13:15:30.076Z,31.27
2019-03-21T13:17:56.249Z,33.10
2019-03-21T13:20:24.769Z,30.05
2019-03-21T13:22:53.776Z,30.43
2019-03-21T13:25:22.496Z,29.92
2019-03-21T13:27:50.986Z,37.28
2019-03-21T13:30:19.679Z,32.03
2019-03-21T13:32:48.244Z,30.02
2019-03-21T13:35:16.698Z,28.90
2019-03-21T13:37:45.224Z,31.52
2019-03-21T13:40:15.560Z,31.42
2019-03-21T13:42:44.009Z,29.55
2019-03-21T13:45:12.562Z,35.13
2019-03-21T13:47:41.050Z,33.63
2019-03-21T13:50:09.933Z,34.23
2019-03-21T13:52:38.435Z,34.70
2019-03-21T13:55:09.990Z,35.10
2019-03-21T13:57:38.512Z,33.50
2019-03-21T14:00:10.159Z,32.15
2019-03-21T14:02:38.991Z,34.23
2019-03-21T14:05:08.067Z,36.95
2019-03-21T14:07:36.513Z,39.25
2019-03-21T14:10:09.969Z,36.35
2019-03-21T14:12:38.495Z,35.17
2019-03-21T14:15:11.893Z,40.23
2019-03-21T14:17:40.423Z,36.88
2019-03-21T14:20:10.641Z,38.10
2019-03-21T14:22:39.160Z,42.67
2019-03-21T14:25:08.445Z,37.45
2019-03-21T14:27:36.956Z,40.17
2019-03-21T14:30:08.659Z,41.23
2019-03-21T14:32:37.233Z,44.00
2019-03-21T14:35:09.129Z,41.48
2019-03-21T14:37:37.586Z,46.28
2019-03-21T14:40:13.829Z,42.80
2019-03-21T14:42:42.745Z,44.40
2019-03-21T14:45:14.187Z,42.62
2019-03-21T14:47:42.633Z,47.75
2019-03-21T14:50:13.471Z,47.83
2019-03-21T14:52:42.085Z,45.80
2019-03-21T14:55:13.522Z,44.77
2019-03-21T14:57:41.970Z,45.78
2019-03-21T15:00:13.696Z,46.45
2019-03-21T15:02:42.294Z,45.20
2019-03-21T15:05:10.814Z,42.88
2019-03-21T15:07:39.279Z,46.28
2019-03-21T15:10:10.923Z,47.33
2019-03-21T15:12:39.459Z,49.00
2019-03-21T15:15:10.059Z,45.50
2019-03-21T15:17:38.558Z,48.35
2019-03-21T15:20:09.687Z,45.15
2019-03-21T15:22:38.138Z,41.90
2019-03-21T15:25:08.312Z,49.53
2019-03-21T15:27:36.906Z,44.90
2019-03-21T15:30:11.322Z,48.78
2019-03-21T15:32:41.830Z,47.55
2019-03-21T15:35:11.867Z,43.40
2019-03-21T15:37:40.317Z,50.60
2019-03-21T15:40:11.455Z,48.60
2019-03-21T15:42:39.991Z,54.00
2019-03-21T15:45:22.323Z,54.40
2019-03-21T15:47:42.532Z,52.43
2019-03-21T15:50:16.010Z,55.73
2019-03-21T15:52:44.548Z,51.20
2019-03-21T15:55:13.012Z,49.50
2019-03-21T15:57:41.533Z,48.75
2019-03-21T16:00:16.059Z,48.23
2019-03-21T16:02:44.518Z,49.45
2019-03-21T16:05:13.129Z,51.88
2019-03-21T16:07:41.583Z,52.85
2019-03-21T16:10:10.034Z,53.55
2019-03-21T16:12:38.563Z,54.45
2019-03-21T16:15:08.458Z,52.90
2019-03-21T16:17:36.990Z,54.55
2019-03-21T16:20:08.542Z,49.85
2019-03-21T16:22:37.060Z,56.88
2019-03-21T16:25:07.699Z,57.62
2019-03-21T16:27:37.382Z,55.25
2019-03-21T16:30:08.649Z,64.15
2019-03-21T16:32:37.184Z,53.80
2019-03-21T16:35:28.569Z,54.40
2019-03-21T16:37:57.054Z,56.83
2019-03-21T16:40:25.506Z,54.48
2019-03-21T16:42:54.035Z,52.10
2019-03-21T16:45:22.570Z,50.63
2019-03-21T16:47:51.110Z,57.93
2019-03-21T16:50:19.597Z,53.58
2019-03-21T16:52:48.049Z,52.35
2019-03-21T16:55:16.568Z,51.65
2019-03-21T16:57:45.028Z,56.25
2019-03-21T17:00:17.737Z,54.18
2019-03-21T17:02:47.057Z,49.20
2019-03-21T17:05:15.598Z,49.73
2019-03-21T17:07:44.120Z,49.85
2019-03-21T17:10:14.061Z,47.70
2019-03-21T17:12:42.666Z,48.00
2019-03-21T17:15:12.800Z,52.88
2019-03-21T17:17:41.427Z,50.90
2019-03-21T17:20:11.899Z,50.23
2019-03-21T17:25:08.600Z,58.05
2019-03-21T17:27:37.059Z,47.93
2019-03-21T17:30:11.251Z,48.95
2019-03-21T17:32:39.779Z,54.42
2019-03-21T17:35:08.462Z,48.55
2019-03-21T17:37:36.959Z,50.88
2019-03-21T17:40:08.583Z,45.48
2019-03-21T17:42:37.046Z,51.08
2019-03-21T17:45:11.104Z,50.10
2019-03-21T17:47:39.552Z,51.83
2019-03-21T17:50:09.043Z,51.23
2019-03-21T17:52:37.525Z,52.50
2019-03-21T17:55:07.069Z,56.28
2019-03-21T17:57:35.527Z,55.48
2019-03-21T18:00:07.072Z,53.48
2019-03-21T18:02:35.637Z,59.83
2019-03-21T18:05:06.917Z,53.38
2019-03-21T18:07:35.421Z,57.93
2019-03-21T18:10:10.095Z,56.37
2019-03-21T18:12:38.536Z,52.75
2019-03-21T18:15:07.667Z,65.15
2019-03-21T18:17:36.114Z,58.38
2019-03-21T18:20:06.127Z,63.87
2019-03-21T18:22:34.572Z,49.90
2019-03-21T18:25:04.015Z,59.42
2019-03-21T18:27:32.521Z,57.70
2019-03-21T18:30:00.960Z,54.03
2019-03-21T18:32:29.443Z,69.03
2019-03-21T18:34:57.964Z,60.50
2019-03-21T18:37:26.488Z,64.87
2019-03-21T18:39:55.114Z,61.30
2019-03-21T18:42:23.599Z,49.55
2019-03-21T18:44:52.045Z,60.73
2019-03-21T18:47:20.723Z,51.70
2019-03-21T18:49:49.169Z,51.70
2019-03-21T18:52:17.613Z,47.17
2019-03-21T18:54:46.141Z,53.63
2019-03-21T18:57:14.584Z,53.63
2019-03-21T18:59:43.043Z,49.20
2019-03-21T19:02:11.619Z,53.55
2019-03-21T19:04:40.143Z,49.10
2019-03-21T19:07:08.603Z,45.67
2019-03-21T19:09:37.082Z,50.67
2019-03-21T19:12:05.736Z,49.80
2019-03-21T19:14:34.186Z,50.23
2019-03-21T19:17:02.661Z,46.18
2019-03-21T19:19:31.106Z,57.83
2019-03-21T19:21:59.582Z,52.20
2019-03-21T19:24:28.033Z,51.30
2019-03-21T19:26:56.870Z,44.48
2019-03-21T19:29:25.417Z,51.83
2019-03-21T19:31:53.968Z,57.20
2019-03-21T19:34:22.417Z,58.40
2019-03-21T19:36:50.860Z,55.30
2019-03-21T19:39:19.365Z,55.98
2019-03-21T19:41:47.806Z,50.67
2019-03-21T19:44:16.250Z,49.23
2019-03-21T19:46:44.854Z,47.88
2019-03-21T19:49:13.302Z,48.42
2019-03-21T19:51:41.751Z,50.38
2019-03-21T19:54:10.220Z,58.92
2019-03-21T19:56:38.733Z,57.35
2019-03-21T19:59:07.367Z,53.02
2019-03-21T20:01:35.858Z,48.40
2019-03-21T20:04:04.470Z,52.25
2019-03-21T20:06:32.919Z,48.48
2019-03-21T20:09:01.374Z,49.55
2019-03-21T20:11:30.009Z,49.25
2019-03-21T20:13:58.457Z,45.17
2019-03-21T20:16:26.907Z,48.35
2019-03-21T20:18:55.411Z,52.27
2019-03-21T20:21:23.858Z,54.73
2019-03-21T20:23:52.312Z,55.55
2019-03-21T20:26:20.814Z,59.55
2019-03-21T20:28:49.259Z,49.83
2019-03-21T20:31:17.719Z,54.40
2019-03-21T20:33:46.285Z,56.85
2019-03-21T20:36:14.868Z,54.77
2019-03-21T20:38:43.392Z,52.95
2019-03-21T20:41:11.848Z,47.80
2019-03-21T20:43:40.330Z,56.98
2019-03-21T20:46:08.777Z,51.33
2019-03-21T20:48:36.176Z,62.55
2019-03-21T20:51:04.695Z,56.15
2019-03-21T20:53:33.183Z,50.83
2019-03-21T20:56:01.667Z,49.38
2019-03-21T20:58:30.195Z,55.92
2019-03-21T21:00:59.236Z,57.55
2019-03-21T21:03:27.714Z,52.67
2019-03-21T21:05:56.245Z,53.75
2019-03-21T21:08:24.866Z,52.43
2019-03-21T21:10:53.393Z,54.33
2019-03-21T21:13:21.828Z,52.95
2019-03-21T21:15:50.312Z,55.38
2019-03-21T21:18:18.768Z,55.83
2019-03-21T21:20:47.290Z,61.20
2019-03-21T21:23:15.747Z,53.98
2019-03-21T21:25:44.190Z,55.38
2019-03-21T21:28:12.708Z,53.75
2019-03-21T21:30:41.169Z,54.60
2019-03-21T21:33:09.698Z,51.08
2019-03-21T21:35:38.278Z,55.60
2019-03-21T21:38:06.810Z,57.85
2019-03-21T21:40:35.257Z,62.00
2019-03-21T21:43:03.787Z,64.75
2019-03-21T21:45:32.227Z,61.77
2019-03-21T21:48:00.677Z,59.73
2019-03-21T21:50:29.162Z,55.10
2019-03-21T21:52:57.614Z,59.83
2019-03-21T21:55:26.104Z,53.63
2019-03-21T21:57:54.551Z,55.53
2019-03-21T22:00:23.257Z,68.30
2019-03-21T22:02:52.588Z,57.37
2019-03-21T22:05:21.048Z,62.17
2019-03-21T22:07:49.506Z,59.77
2019-03-21T22:10:18.020Z,58.17
2019-03-21T22:12:46.604Z,52.93
2019-03-21T22:15:16.398Z,55.43
2019-03-21T22:17:45.162Z,64.32
2019-03-21T22:20:15.658Z,60.80
2019-03-21T22:25:12.149Z,52.80
2019-03-21T22:27:40.602Z,59.80
2019-03-21T22:30:14.385Z,61.70
2019-03-21T22:32:42.977Z,55.00
2019-03-21T22:35:12.053Z,61.73
2019-03-21T22:37:40.554Z,52.03
2019-03-21T22:40:12.086Z,54.97
2019-03-21T22:42:40.618Z,57.70
2019-03-21T22:45:11.491Z,55.53
2019-03-21T22:47:39.994Z,47.67
2019-03-21T22:50:16.282Z,59.03
2019-03-21T22:52:45.616Z,56.07
2019-03-21T22:55:14.808Z,60.27
2019-03-21T22:57:43.603Z,58.93
2019-03-21T23:00:20.429Z,59.50
2019-03-21T23:02:48.892Z,63.13
2019-03-21T23:05:17.657Z,57.57
2019-03-21T23:07:46.143Z,46.87
2019-03-21T23:10:15.038Z,58.47
2019-03-21T23:12:43.599Z,54.17
2019-03-21T23:15:13.227Z,57.17
2019-03-21T23:17:41.813Z,52.53
2019-03-21T23:20:14.933Z,51.57
2019-03-21T23:22:43.830Z,56.83
2019-03-21T23:25:34.857Z,58.07
2019-03-21T23:28:03.386Z,51.53
2019-03-21T23:30:33.457Z,58.57
2019-03-21T23:33:02.225Z,57.30
2019-03-21T23:35:31.191Z,55.43
2019-03-21T23:37:59.704Z,58.17
2019-03-21T23:40:28.195Z,55.27
2019-03-21T23:42:56.636Z,62.47
2019-03-21T23:45:25.129Z,57.10
2019-03-21T23:47:53.646Z,48.87
2019-03-21T23:50:22.156Z,56.97
2019-03-21T23:52:50.619Z,54.73
2019-03-21T23:55:19.070Z,60.80
2019-03-21T23:57:47.950Z,61.77
